createdAt,value
2022-10-10T15:12:34.911Z,1.30
2022-10-10T15:15:04.035Z,3.13
2022-10-10T15:17:34.279Z,1.90
2022-10-10T15:20:02.308Z,1.80
2022-10-10T15:22:30.732Z,1.87
2022-10-10T15:25:00.404Z,2.43
2022-10-10T15:27:29.163Z,2.30
2022-10-10T15:29:57.264Z,1.90
2022-10-10T15:32:25.211Z,2.23
2022-10-10T15:34:53.392Z,1.73
2022-10-10T15:37:21.313Z,2.03
2022-10-10T15:39:49.124Z,1.80
2022-10-10T15:42:22.728Z,1.70
2022-10-10T15:44:51.140Z,2.03
2022-10-10T15:47:19.876Z,1.60
2022-10-10T15:49:47.991Z,2.90
2022-10-10T15:52:16.381Z,2.30
2022-10-10T15:54:48.478Z,2.50
2022-10-10T15:57:18.672Z,2.60
2022-10-10T16:00:14.994Z,2.70
2022-10-10T16:02:43.032Z,2.43
2022-10-10T16:05:11.171Z,2.50
2022-10-10T16:07:48.390Z,3.07
2022-10-10T16:10:16.859Z,3.03
2022-10-10T16:12:44.824Z,2.80
2022-10-10T16:15:25.939Z,2.70
2022-10-10T16:17:53.891Z,2.50
2022-10-10T16:20:21.862Z,3.70
2022-10-10T16:22:50.052Z,3.20
2022-10-10T16:25:22.950Z,3.10
2022-10-10T16:27:52.651Z,3.10
2022-10-10T16:30:21.172Z,3.53
2022-10-10T23:30:32.155Z,3.30
2022-10-10T23:33:00.405Z,3.67
2022-10-10T23:35:28.077Z,3.60
2022-10-10T23:37:56.862Z,4.30
2022-10-10T23:40:26.003Z,3.80
2022-10-10T23:42:53.817Z,3.87
2022-10-10T23:45:22.100Z,3.63
2022-10-10T23:47:51.357Z,3.60
2022-10-10T23:50:19.049Z,4.03
2022-10-10T23:52:46.727Z,4.53
2022-10-10T23:55:14.452Z,3.87
2022-10-10T23:57:42.095Z,3.30
